Time;durP1;ratioP1;P1;durP2;ratioP2;P2;SDS_P1;SDS_P2;PMS_P1;PMS_P2;Temp;Humidity;BMP_temperature;BMP_pressure;BME280_temperature;BME280_humidity;BME280_pressure;Samples;Min_cycle;Max_cycle;Signal;HPM_P1;HPM_P2
2022/06/13 00:01:17;;;;;;;8.63;6.10;;;14.30;99.90;;;;;;5046508;28;20179;-67
2022/06/13 00:03:44;;;;;;;7.07;5.93;;;14.30;99.90;;;;;;5052274;28;20277;-67
2022/06/13 00:06:10;;;;;;;6.67;5.10;;;14.30;99.90;;;;;;5039260;28;20619;-66
2022/06/13 00:08:36;;;;;;;6.53;5.97;;;14.30;99.90;;;;;;5032481;28;20286;-66
2022/06/13 00:11:02;;;;;;;6.77;6.17;;;14.20;99.90;;;;;;5043431;28;20207;-67
2022/06/13 00:13:28;;;;;;;8.17;6.07;;;14.20;99.90;;;;;;5052266;28;20663;-66
2022/06/13 00:15:53;;;;;;;7.07;6.13;;;14.20;99.90;;;;;;5042339;28;20263;-67
2022/06/13 00:18:19;;;;;;;6.97;6.33;;;14.10;99.90;;;;;;5032241;28;20270;-67
2022/06/13 00:20:44;;;;;;;8.00;6.27;;;14.10;99.90;;;;;;5040146;28;20618;-66
2022/06/13 00:23:10;;;;;;;7.43;6.33;;;14.10;99.90;;;;;;5052086;28;20174;-67
2022/06/13 00:25:35;;;;;;;9.63;6.63;;;14.10;99.90;;;;;;5050174;28;20575;-67
2022/06/13 00:28:01;;;;;;;7.40;5.83;;;14.10;99.90;;;;;;5051933;28;20232;-67
2022/06/13 00:30:27;;;;;;;7.80;7.00;;;14.00;99.90;;;;;;5045490;28;20254;-66
2022/06/13 00:32:52;;;;;;;6.77;6.17;;;13.90;99.90;;;;;;5032274;28;20190;-65
2022/06/13 00:35:18;;;;;;;9.30;6.13;;;13.80;99.90;;;;;;5036452;28;20281;-66
2022/06/13 00:37:44;;;;;;;9.23;6.40;;;13.70;99.90;;;;;;5052917;28;20179;-66
2022/06/13 00:40:10;;;;;;;8.07;6.50;;;13.60;99.90;;;;;;5048644;28;20213;-65
2022/06/13 00:42:37;;;;;;;8.60;6.43;;;13.50;99.90;;;;;;5032192;28;20180;-66
2022/06/13 00:45:02;;;;;;;7.23;6.63;;;13.40;99.90;;;;;;5032905;28;20170;-66
2022/06/13 00:47:28;;;;;;;6.43;5.97;;;13.30;99.90;;;;;;5051878;28;20775;-66
2022/06/13 00:49:53;;;;;;;7.90;6.50;;;13.30;99.90;;;;;;5051465;28;20274;-65
2022/06/13 00:52:34;;;;;;;10.70;6.83;;;13.30;99.90;;;;;;5031961;28;20250;-66
2022/06/13 00:54:59;;;;;;;7.03;5.87;;;13.20;99.90;;;;;;5051383;28;20171;-66
2022/06/13 00:57:28;;;;;;;7.23;6.53;;;13.10;99.90;;;;;;5051492;28;20225;-65
2022/06/13 00:59:59;;;;;;;7.67;7.00;;;13.10;99.90;;;;;;5033102;28;20226;-64
2022/06/13 01:02:25;;;;;;;8.13;6.90;;;13.10;99.90;;;;;;5031733;28;20178;-64
2022/06/13 01:04:53;;;;;;;8.70;6.40;;;13.10;99.90;;;;;;5048266;28;20556;-64
2022/06/13 01:07:20;;;;;;;11.17;6.23;;;13.10;99.90;;;;;;5051346;28;20174;-64
2022/06/13 01:12:32;;;;;;;6.53;5.80;;;13.00;99.90;;;;;;5031579;28;20629;-66
2022/06/13 01:15:16;;;;;;;11.03;6.67;;;13.00;99.90;;;;;;5046154;28;20541;-66
2022/06/13 01:18:02;;;;;;;10.07;6.80;;;13.00;99.90;;;;;;5051218;28;20202;-64
2022/06/13 01:20:35;;;;;;;8.63;7.83;;;13.00;99.90;;;;;;5031296;28;20175;-65
2022/06/13 01:23:19;;;;;;;13.30;9.07;;;13.00;99.90;;;;;;5031647;28;20178;-66
2022/06/13 01:25:56;;;;;;;9.53;8.43;;;12.90;99.90;;;;;;5030958;28;20175;-67
2022/06/13 01:28:48;;;;;;;9.60;7.50;;;13.00;99.90;;;;;;5031024;28;20253;-66
2022/06/13 01:31:19;;;;;;;7.53;6.77;;;13.00;99.90;;;;;;5031548;28;20567;-65
2022/06/13 01:33:59;;;;;;;8.07;7.37;;;12.90;99.90;;;;;;5031131;28;20219;-66
2022/06/13 01:36:31;;;;;;;9.87;7.00;;;12.90;99.90;;;;;;5035382;28;20225;-67
2022/06/13 01:39:02;;;;;;;10.97;7.27;;;12.80;99.90;;;;;;5051199;28;20195;-66
2022/06/13 01:41:49;;;;;;;8.00;7.40;;;12.70;99.90;;;;;;5046317;28;20188;-65
2022/06/13 01:44:33;;;;;;;10.83;7.17;;;12.60;99.90;;;;;;5030725;28;20183;-67
2022/06/13 01:47:28;;;;;;;10.10;7.37;;;12.40;99.90;;;;;;5038985;28;20662;-67
2022/06/13 01:49:53;;;;;;;13.23;7.60;;;12.40;99.90;;;;;;5027201;28;20215;-67
2022/06/13 01:52:38;;;;;;;8.07;6.83;;;12.40;99.90;;;;;;5030759;28;20203;-67
2022/06/13 01:55:25;;;;;;;8.93;7.60;;;12.40;99.90;;;;;;5041346;28;20206;-67
2022/06/13 01:57:58;;;;;;;9.03;7.00;;;12.40;99.90;;;;;;5050844;28;20171;-66
2022/06/13 02:00:27;;;;;;;7.37;6.70;;;12.40;99.90;;;;;;5031719;28;20270;-67
2022/06/13 02:03:05;;;;;;;7.87;7.17;;;12.40;99.90;;;;;;5031278;28;20576;-66
2022/06/13 02:05:32;;;;;;;9.20;7.53;;;12.40;99.90;;;;;;5049854;28;20521;-67
2022/06/13 02:08:08;;;;;;;10.77;7.63;;;12.40;99.90;;;;;;5050624;28;20195;-67
2022/06/13 02:10:40;;;;;;;8.23;7.03;;;12.30;99.90;;;;;;5032500;28;20642;-66
2022/06/13 02:13:13;;;;;;;9.40;7.13;;;12.40;99.90;;;;;;5034869;28;20172;-65
2022/06/13 02:15:42;;;;;;;8.17;7.37;;;12.40;99.90;;;;;;5053806;28;20175;-65
2022/06/13 02:18:20;;;;;;;8.10;7.47;;;12.40;99.90;;;;;;5045958;28;20203;-65
2022/06/13 02:20:51;;;;;;;8.90;7.23;;;12.50;99.90;;;;;;5051843;28;20179;-64
2022/06/13 02:23:22;;;;;;;9.23;7.13;;;12.50;99.90;;;;;;5054403;28;20171;-65
2022/06/13 02:26:02;;;;;;;11.90;7.47;;;12.50;99.90;;;;;;5054496;28;20253;-65
2022/06/13 02:28:46;;;;;;;11.90;7.97;;;12.50;99.90;;;;;;5052988;28;20626;-66
2022/06/13 02:31:20;;;;;;;7.80;7.10;;;12.50;99.90;;;;;;5054253;28;20653;-65
2022/06/13 02:33:56;;;;;;;12.27;7.27;;;12.50;99.90;;;;;;5039194;28;20209;-65
2022/06/13 02:36:57;;;;;;;13.20;7.73;;;12.50;99.90;;;;;;5034255;28;20689;-64
2022/06/13 02:39:35;;;;;;;10.33;7.60;;;12.50;99.90;;;;;;5015108;28;20214;-65
2022/06/13 02:42:07;;;;;;;8.07;6.90;;;12.50;99.90;;;;;;5034121;28;20186;-65
2022/06/13 02:44:41;;;;;;;18.97;8.53;;;12.50;99.90;;;;;;5052733;28;20533;-65
2022/06/13 02:47:27;;;;;;;16.10;8.37;;;12.50;99.90;;;;;;5053914;28;20174;-65
2022/06/13 02:50:06;;;;;;;14.70;8.13;;;12.50;99.90;;;;;;5053993;28;20243;-65
2022/06/13 02:52:39;;;;;;;14.23;7.33;;;12.50;99.90;;;;;;5051263;28;20606;-65
2022/06/13 02:55:08;;;;;;;13.40;6.93;;;12.50;99.90;;;;;;5033790;28;20540;-64
2022/06/13 02:57:52;;;;;;;11.07;7.27;;;12.50;99.90;;;;;;5035863;28;20267;-65
2022/06/13 03:00:42;;;;;;;9.77;7.47;;;12.50;99.90;;;;;;5053668;28;20577;-65
2022/06/13 03:03:23;;;;;;;11.50;7.63;;;12.50;99.90;;;;;;5047280;28;20187;-64
2022/06/13 03:06:07;;;;;;;10.90;8.37;;;12.50;99.90;;;;;;5033742;28;20202;-65
2022/06/13 03:09:08;;;;;;;9.07;7.83;;;12.60;99.90;;;;;;5042626;28;20203;-66
2022/06/13 03:11:42;;;;;;;8.53;7.50;;;12.60;99.90;;;;;;4995881;28;20240;-64
2022/06/13 03:14:08;;;;;;;17.53;8.17;;;12.50;99.90;;;;;;5046315;28;20182;-65
2022/06/13 03:16:54;;;;;;;13.83;7.97;;;12.40;99.90;;;;;;5053546;28;20179;-65
2022/06/13 03:19:20;;;;;;;10.97;8.13;;;12.40;99.90;;;;;;5038493;28;20717;-63
2022/06/13 03:22:03;;;;;;;11.07;7.90;;;12.40;99.90;;;;;;5032205;28;20198;-65
2022/06/13 03:24:42;;;;;;;11.73;7.50;;;12.40;99.90;;;;;;5048090;28;20186;-65
2022/06/13 03:27:13;;;;;;;11.73;7.77;;;12.40;99.90;;;;;;5053421;28;20224;-65
2022/06/13 03:29:49;;;;;;;12.17;7.70;;;12.50;99.90;;;;;;5036866;28;20221;-66
2022/06/13 03:32:21;;;;;;;11.40;7.67;;;12.40;99.90;;;;;;5033230;28;20213;-66
2022/06/13 03:34:53;;;;;;;9.80;7.37;;;12.50;99.90;;;;;;5049409;28;20183;-64
2022/06/13 03:37:24;;;;;;;8.60;7.20;;;12.50;99.90;;;;;;5051809;28;20198;-65
2022/06/13 03:40:04;;;;;;;8.90;7.90;;;12.50;99.90;;;;;;5033441;28;20183;-65
2022/06/13 03:42:55;;;;;;;11.57;7.70;;;12.50;99.90;;;;;;5034806;28;20190;-65
2022/06/13 03:45:46;;;;;;;11.77;7.50;;;12.50;99.90;;;;;;5052867;28;20542;-65
2022/06/13 03:48:22;;;;;;;10.00;8.27;;;12.50;99.90;;;;;;5052732;28;20730;-65
2022/06/13 03:50:54;;;;;;;11.27;7.63;;;12.50;99.90;;;;;;5049939;28;20271;-66
2022/06/13 03:53:39;;;;;;;8.90;8.00;;;12.50;99.90;;;;;;5032797;28;20179;-65
2022/06/13 03:56:46;;;;;;;10.17;8.00;;;12.60;99.90;;;;;;5037191;28;20276;-67
2022/06/13 03:59:19;;;;;;;11.60;7.93;;;12.70;99.90;;;;;;5045005;28;20756;-67
2022/06/13 04:01:58;;;;;;;8.60;7.73;;;12.70;99.90;;;;;;5032966;28;20221;-67
2022/06/13 04:04:37;;;;;;;9.00;8.13;;;12.80;99.90;;;;;;5040947;28;20178;-66
2022/06/13 04:07:03;;;;;;;7.97;7.17;;;12.90;99.90;;;;;;5052604;28;20599;-67
2022/06/13 04:09:33;;;;;;;10.50;7.83;;;13.00;99.90;;;;;;5043105;28;20298;-66
2022/06/13 04:12:50;;;;;;;10.50;7.27;;;13.10;99.90;;;;;;5032543;28;20195;-67
2022/06/13 04:15:55;;;;;;;9.27;7.40;;;13.10;99.90;;;;;;4999169;28;20274;-67
2022/06/13 04:18:46;;;;;;;9.60;8.20;;;13.00;99.90;;;;;;5032314;28;20191;-67
2022/06/13 04:21:45;;;;;;;14.20;8.10;;;13.10;99.90;;;;;;5041080;28;20700;-67
2022/06/13 04:24:29;;;;;;;11.70;8.33;;;13.10;99.90;;;;;;4999788;28;20260;-66
2022/06/13 04:27:17;;;;;;;11.17;7.23;;;13.20;99.90;;;;;;5032399;28;20651;-65
2022/06/13 04:29:57;;;;;;;7.97;7.20;;;13.20;99.90;;;;;;5041270;28;20682;-67
2022/06/13 04:32:36;;;;;;;8.33;7.07;;;13.20;99.90;;;;;;5043482;28;20207;-67
2022/06/13 04:35:03;;;;;;;11.83;7.37;;;13.30;99.90;;;;;;5031844;28;20267;-67
2022/06/13 04:37:29;;;;;;;8.27;7.27;;;13.40;99.90;;;;;;5040581;28;20273;-67
2022/06/13 04:40:02;;;;;;;8.10;7.30;;;13.60;99.90;;;;;;5052031;28;20515;-66
2022/06/13 04:42:31;;;;;;;9.20;6.70;;;13.80;99.90;;;;;;5043504;28;20187;-66
2022/06/13 04:45:08;;;;;;;8.20;7.20;;;14.00;99.90;;;;;;5031862;28;20184;-67
2022/06/13 04:47:35;;;;;;;10.23;7.83;;;14.10;99.90;;;;;;5039996;28;20186;-66
2022/06/13 04:50:03;;;;;;;11.47;6.83;;;14.40;99.90;;;;;;5051926;28;20178;-66
2022/06/13 04:52:34;;;;;;;8.63;6.53;;;14.60;99.90;;;;;;5044519;28;20214;-67
2022/06/13 04:55:06;;;;;;;11.33;6.83;;;14.60;99.90;;;;;;5031778;28;20638;-67
2022/06/13 04:57:33;;;;;;;10.07;7.10;;;14.70;99.90;;;;;;5038626;28;20210;-67
2022/06/13 04:59:59;;;;;;;10.67;7.23;;;14.80;99.90;;;;;;5046595;28;20553;-67
2022/06/13 05:02:44;;;;;;;7.40;6.63;;;14.80;99.90;;;;;;5031609;28;20190;-67
2022/06/13 05:05:31;;;;;;;7.20;6.60;;;14.70;99.90;;;;;;5036994;28;20183;-66
2022/06/13 05:07:58;;;;;;;10.23;7.07;;;14.70;99.90;;;;;;5051513;28;20575;-67
2022/06/13 05:10:27;;;;;;;8.37;6.97;;;14.70;99.90;;;;;;5043987;28;20273;-67
2022/06/13 05:12:54;;;;;;;12.27;7.77;;;14.80;99.90;;;;;;5031670;28;20602;-66
2022/06/13 05:15:27;;;;;;;7.97;7.17;;;14.80;99.90;;;;;;5032343;28;20198;-66
2022/06/13 05:18:10;;;;;;;12.63;7.27;;;14.90;99.90;;;;;;5032052;28;20544;-67
2022/06/13 05:21:02;;;;;;;10.83;6.90;;;14.90;99.90;;;;;;5042227;28;20200;-66
2022/06/13 05:23:57;;;;;;;13.10;7.33;;;15.00;99.90;;;;;;5051249;28;20223;-67
2022/06/13 05:26:28;;;;;;;7.73;7.07;;;15.00;99.90;;;;;;5034573;28;20539;-67
2022/06/13 05:28:56;;;;;;;7.47;6.63;;;14.90;99.90;;;;;;5031568;28;20207;-66
2022/06/13 05:31:22;;;;;;;8.60;6.57;;;14.90;99.90;;;;;;5046892;28;20217;-67
2022/06/13 05:33:49;;;;;;;8.00;6.70;;;14.80;99.90;;;;;;5040310;28;20180;-65
2022/06/13 05:36:19;;;;;;;11.63;8.07;;;14.90;99.90;;;;;;5031396;28;20179;-66
2022/06/13 05:38:49;;;;;;;10.63;7.40;;;15.00;99.90;;;;;;5040707;28;20301;-66
2022/06/13 05:41:15;;;;;;;10.93;7.47;;;15.20;99.90;;;;;;5051209;28;20185;-66
2022/06/13 05:43:40;;;;;;;8.87;7.83;;;15.30;99.90;;;;;;5041976;28;20270;-67
2022/06/13 05:46:08;;;;;;;18.50;7.30;;;15.40;99.90;;;;;;5033430;28;20720;-67
2022/06/13 05:48:33;;;;;;;13.03;8.33;;;15.30;99.90;;;;;;5042089;28;20677;-67
2022/06/13 05:50:59;;;;;;;8.97;7.20;;;15.20;99.90;;;;;;5055254;28;20225;-70
2022/06/13 05:53:26;;;;;;;12.63;8.00;;;15.30;99.90;;;;;;5049214;28;20180;-66
2022/06/13 05:55:56;;;;;;;7.90;7.10;;;15.60;99.90;;;;;;5035231;28;20637;-67
2022/06/13 05:58:24;;;;;;;15.57;7.70;;;15.90;99.90;;;;;;5046553;28;20293;-67
2022/06/13 06:00:57;;;;;;;8.07;7.03;;;16.10;99.90;;;;;;5054989;28;20167;-66
2022/06/13 06:03:23;;;;;;;9.90;7.37;;;16.40;99.90;;;;;;5042985;28;20191;-67
2022/06/13 06:05:48;;;;;;;9.87;6.73;;;16.40;99.90;;;;;;5035019;28;20171;-67
2022/06/13 06:08:21;;;;;;;7.77;6.93;;;16.30;99.90;;;;;;5044030;28;20712;-67
2022/06/13 06:10:52;;;;;;;7.40;6.37;;;16.50;99.90;;;;;;5054912;28;20171;-66
2022/06/13 06:13:18;;;;;;;13.33;6.90;;;16.60;99.90;;;;;;5044722;28;20183;-65
2022/06/13 06:15:46;;;;;;;11.47;6.97;;;16.80;99.90;;;;;;5034830;28;20601;-67
2022/06/13 06:18:12;;;;;;;9.20;6.97;;;16.90;99.90;;;;;;5038630;28;20188;-66
2022/06/13 06:20:38;;;;;;;13.10;7.27;;;17.00;99.90;;;;;;5042401;28;20186;-66
2022/06/13 06:23:04;;;;;;;7.90;6.63;;;16.90;99.90;;;;;;5046643;28;20523;-68
2022/06/13 06:25:31;;;;;;;7.70;6.97;;;16.70;99.90;;;;;;5045291;28;20186;-65
2022/06/13 06:27:56;;;;;;;8.57;7.70;;;16.40;99.90;;;;;;5052597;28;20245;-66
2022/06/13 06:30:22;;;;;;;9.47;6.97;;;16.30;99.90;;;;;;5054332;28;20215;-65
2022/06/13 06:32:48;;;;;;;8.23;6.70;;;16.30;99.90;;;;;;5052856;28;20199;-65
2022/06/13 06:35:14;;;;;;;10.83;7.03;;;16.50;99.90;;;;;;5034088;28;20669;-64
2022/06/13 06:37:46;;;;;;;7.37;6.60;;;16.60;99.90;;;;;;5034585;28;20179;-65
2022/06/13 06:40:14;;;;;;;13.53;8.07;;;16.70;99.90;;;;;;5034231;28;20179;-65
2022/06/13 06:42:40;;;;;;;9.93;8.37;;;16.80;99.90;;;;;;5034332;28;20543;-64
2022/06/13 06:45:06;;;;;;;9.07;8.10;;;16.80;99.90;;;;;;5034216;28;20194;-65
2022/06/13 06:47:32;;;;;;;10.60;7.37;;;16.60;99.90;;;;;;5035157;28;20187;-65
2022/06/13 06:49:58;;;;;;;10.77;7.50;;;16.60;99.90;;;;;;5047795;28;20209;-66
2022/06/13 06:52:24;;;;;;;10.10;6.37;;;16.90;99.90;;;;;;5046615;28;20215;-65
2022/06/13 07:00:19;;;;;;;7.87;6.30;;;17.40;99.90;;;;;;5053676;28;20182;-65
2022/06/13 07:02:45;;;;;;;7.30;6.37;;;17.90;99.90;;;;;;5052092;28;20684;-66
2022/06/13 07:05:12;;;;;;;8.13;6.43;;;18.50;99.90;;;;;;5053275;28;20646;-66
2022/06/13 07:07:38;;;;;;;9.53;5.93;;;19.00;99.90;;;;;;5039604;28;20257;-65
2022/06/13 07:10:05;;;;;;;7.53;6.73;;;19.10;99.90;;;;;;5033648;28;20316;-66
2022/06/13 07:12:30;;;;;;;11.83;6.67;;;19.00;99.90;;;;;;5045063;28;20210;-65
2022/06/13 07:14:56;;;;;;;10.80;6.97;;;19.10;99.90;;;;;;5053187;28;20182;-65
2022/06/13 07:17:22;;;;;;;8.33;6.93;;;19.10;99.90;;;;;;5051540;28;20179;-66
2022/06/13 07:19:48;;;;;;;12.03;6.63;;;19.10;99.90;;;;;;5053347;28;20615;-65
2022/06/13 07:22:17;;;;;;;11.37;8.03;;;19.00;99.90;;;;;;5044500;28;20183;-65
2022/06/13 07:24:44;;;;;;;21.03;8.27;;;18.90;99.90;;;;;;5033269;28;20175;-65
2022/06/13 07:27:10;;;;;;;13.00;8.13;;;18.70;99.90;;;;;;5040149;28;20273;-65
2022/06/13 07:29:35;;;;;;;14.50;8.73;;;18.20;99.90;;;;;;5053053;28;20779;-64
2022/06/13 07:32:11;;;;;;;12.73;8.77;;;18.00;99.90;;;;;;5047866;28;20286;-64
2022/06/13 07:34:40;;;;;;;20.23;8.80;;;17.80;99.90;;;;;;5032745;28;20181;-64
2022/06/13 07:37:09;;;;;;;13.80;9.27;;;18.10;99.90;;;;;;5038057;28;20516;-64
2022/06/13 07:39:35;;;;;;;17.00;9.17;;;18.70;99.90;;;;;;5052795;28;20225;-64
2022/06/13 07:42:02;;;;;;;15.93;9.93;;;18.90;99.90;;;;;;5049039;28;20179;-65
2022/06/13 07:44:33;;;;;;;15.30;10.50;;;18.80;99.90;;;;;;5032310;28;20215;-65
2022/06/13 07:46:59;;;;;;;18.77;10.13;;;18.90;99.90;;;;;;5035390;28;20190;-64
2022/06/13 07:49:25;;;;;;;14.57;9.53;;;19.10;99.90;;;;;;5052448;28;20293;-65
2022/06/13 07:51:51;;;;;;;21.47;11.33;;;19.30;99.90;;;;;;5046327;28;20373;-65
2022/06/13 07:54:16;;;;;;;20.17;10.77;;;19.40;99.90;;;;;;5052173;28;20538;-64
2022/06/13 07:56:43;;;;;;;12.90;10.60;;;19.80;99.90;;;;;;5051969;28;20237;-66
2022/06/13 07:59:14;;;;;;;13.55;10.32;;;20.50;99.90;;;;;;5036826;28;20210;-65
2022/06/13 08:01:40;;;;;;;14.93;9.98;;;20.80;99.90;;;;;;5032917;28;20179;-65
2022/06/13 08:04:06;;;;;;;18.95;10.30;;;21.10;99.90;;;;;;5045709;28;20191;-66
2022/06/13 08:06:32;;;;;;;16.60;9.60;;;21.70;99.90;;;;;;5052258;28;20209;-64
2022/06/13 08:08:58;;;;;;;15.93;10.50;;;21.40;99.90;;;;;;5039668;28;20207;-65
2022/06/13 08:11:35;;;;;;;18.85;9.73;;;21.00;99.90;;;;;;5032310;28;20372;-64
2022/06/13 08:14:01;;;;;;;16.35;10.05;;;21.20;99.90;;;;;;5032951;28;20262;-65
2022/06/13 08:16:28;;;;;;;13.50;9.48;;;21.50;99.90;;;;;;5031887;28;20218;-65
2022/06/13 08:18:53;;;;;;;21.90;9.45;;;21.80;99.90;;;;;;5041941;28;20199;-65
2022/06/13 08:21:21;;;;;;;14.20;9.85;;;22.10;99.90;;;;;;5052393;28;20638;-65
2022/06/13 08:23:46;;;;;;;14.43;9.43;;;22.60;99.90;;;;;;5043299;28;20269;-64
2022/06/13 08:26:13;;;;;;;18.40;9.93;;;22.70;99.90;;;;;;5032115;28;20294;-65
2022/06/13 08:28:38;;;;;;;14.77;9.48;;;21.90;99.90;;;;;;5037382;28;20211;-65
2022/06/13 08:31:11;;;;;;;15.90;9.88;;;21.70;99.90;;;;;;5032141;28;20237;-65
2022/06/13 08:33:37;;;;;;;16.08;8.40;;;21.60;99.90;;;;;;5039851;28;20180;-65
2022/06/13 08:36:04;;;;;;;13.52;8.68;;;21.70;99.90;;;;;;5051778;28;20175;-66
2022/06/13 08:38:29;;;;;;;14.07;8.05;;;21.80;99.90;;;;;;5031916;28;20199;-65
2022/06/13 08:41:10;;;;;;;16.48;7.85;;;21.40;99.90;;;;;;5051799;28;20201;-66
2022/06/13 08:43:54;;;;;;;13.05;8.00;;;20.70;99.90;;;;;;5047063;28;20176;-67
2022/06/13 08:46:35;;;;;;;12.57;8.37;;;20.30;99.90;;;;;;5035499;28;20661;-66
2022/06/13 08:49:30;;;;;;;17.75;8.13;;;20.30;99.90;;;;;;5051824;28;20197;-66
2022/06/13 08:52:06;;;;;;;11.85;6.90;;;20.60;99.90;;;;;;5050101;28;20685;-65
2022/06/13 08:54:34;;;;;;;10.07;6.18;;;21.50;99.90;;;;;;5050761;28;20236;-65
2022/06/13 08:57:05;;;;;;;9.30;5.05;;;22.00;99.90;;;;;;5042839;28;20195;-65
2022/06/13 08:59:39;;;;;;;9.45;5.22;;;22.00;99.90;;;;;;5031231;28;20234;-67
2022/06/13 09:02:26;;;;;;;12.18;5.75;;;22.00;99.90;;;;;;5039830;28;20228;-66
2022/06/13 09:05:19;;;;;;;11.35;5.80;;;22.40;99.90;;;;;;5051156;28;20179;-66
2022/06/13 09:07:51;;;;;;;9.38;5.20;;;22.70;99.90;;;;;;5037970;28;20221;-66
2022/06/13 09:10:41;;;;;;;8.90;5.63;;;23.00;99.90;;;;;;5031289;28;20242;-66
2022/06/13 09:13:12;;;;;;;8.25;5.40;;;23.00;99.90;;;;;;5032928;28;20203;-65
2022/06/13 09:15:46;;;;;;;5.40;4.90;;;22.80;99.90;;;;;;5033051;28;20170;-66
2022/06/13 09:18:25;;;;;;;10.75;5.45;;;22.30;99.90;;;;;;5035530;28;20749;-65
2022/06/13 09:21:06;;;;;;;6.35;5.22;;;21.60;99.90;;;;;;5031480;28;20537;-65
2022/06/13 09:23:58;;;;;;;11.35;5.82;;;21.30;99.90;;;;;;5032224;28;20179;-65
2022/06/13 09:26:37;;;;;;;7.45;4.90;;;21.10;99.90;;;;;;5022855;28;20191;-65
2022/06/13 09:29:47;;;;;;;11.93;5.40;;;21.10;99.90;;;;;;5031271;28;20294;-65
2022/06/13 09:32:21;;;;;;;8.03;5.37;;;21.00;99.90;;;;;;5035383;28;20209;-64
2022/06/13 09:34:52;;;;;;;6.80;4.97;;;21.00;99.90;;;;;;5050999;28;20200;-65
2022/06/13 09:37:37;;;;;;;9.70;5.50;;;21.00;99.90;;;;;;5045412;28;20175;-65
2022/06/13 09:40:04;;;;;;;5.60;4.93;;;21.30;99.90;;;;;;5031001;28;20334;-66
2022/06/13 09:42:44;;;;;;;11.70;5.68;;;20.90;99.90;;;;;;5041453;28;20590;-65
2022/06/13 09:45:41;;;;;;;9.15;5.38;;;21.10;99.90;;;;;;5050852;28;20178;-66
2022/06/13 09:48:34;;;;;;;6.80;5.25;;;21.80;99.90;;;;;;5035106;28;20210;-66
2022/06/13 09:51:37;;;;;;;13.13;5.97;;;22.50;99.90;;;;;;5031046;28;20198;-65
2022/06/13 09:54:33;;;;;;;7.47;5.45;;;23.10;99.90;;;;;;5017757;28;20567;-66
2022/06/13 09:56:59;;;;;;;6.97;4.70;;;22.80;99.90;;;;;;5030996;28;20250;-66
2022/06/13 09:59:40;;;;;;;11.07;5.25;;;23.00;99.90;;;;;;5034274;28;20290;-65
2022/06/13 10:02:28;;;;;;;10.75;4.90;;;22.80;99.90;;;;;;5040414;28;20185;-65
2022/06/13 10:05:26;;;;;;;6.70;4.70;;;22.90;99.90;;;;;;5030701;28;20178;-65
2022/06/13 10:08:13;;;;;;;11.07;5.55;;;22.70;99.90;;;;;;4997760;28;20191;-65
2022/06/13 10:10:38;;;;;;;8.75;5.40;;;22.70;99.90;;;;;;5042770;28;20221;-65
2022/06/13 10:13:20;;;;;;;7.32;5.18;;;22.00;99.90;;;;;;5050622;28;20234;-64
2022/06/13 10:16:08;;;;;;;9.33;5.17;;;21.60;99.90;;;;;;5038442;28;20547;-65
2022/06/13 10:18:48;;;;;;;6.45;4.38;;;21.50;99.90;;;;;;5034826;28;20201;-65
2022/06/13 10:21:52;;;;;;;7.43;5.13;;;21.50;99.90;;;;;;5030512;28;20171;-66
2022/06/13 10:24:45;;;;;;;10.68;5.22;;;22.20;99.90;;;;;;5029984;28;20187;-66
2022/06/13 10:27:27;;;;;;;7.65;4.45;;;23.20;99.90;;;;;;5030497;28;20183;-65
2022/06/13 10:30:09;;;;;;;9.30;4.40;;;24.50;99.90;;;;;;5030378;28;20238;-65
2022/06/13 10:32:55;;;;;;;8.15;4.40;;;24.90;99.90;;;;;;5033545;28;20211;-65
2022/06/13 10:35:43;;;;;;;5.22;4.25;;;23.90;99.90;;;;;;5034076;28;20163;-64
2022/06/13 10:38:12;;;;;;;6.00;4.07;;;23.30;99.90;;;;;;5034503;28;20278;-65
2022/06/13 10:40:39;;;;;;;7.07;4.45;;;23.20;99.90;;;;;;5033954;28;20199;-64
2022/06/13 10:43:05;;;;;;;6.28;4.40;;;23.20;99.90;;;;;;5038185;28;20183;-65
2022/06/13 10:45:34;;;;;;;5.38;4.50;;;23.30;99.90;;;;;;5033954;28;20237;-64
2022/06/13 10:48:09;;;;;;;9.93;4.75;;;22.80;99.90;;;;;;5051380;28;20222;-64
2022/06/13 10:50:48;;;;;;;11.93;3.95;;;22.60;99.90;;;;;;5053957;28;20166;-64
2022/06/13 10:53:26;;;;;;;7.70;4.70;;;22.90;99.90;;;;;;5034312;28;20223;-64
2022/06/13 10:55:54;;;;;;;4.57;3.63;;;23.50;99.90;;;;;;5033130;28;20669;-65
2022/06/13 10:58:44;;;;;;;6.47;3.92;;;24.20;99.90;;;;;;5052684;28;20213;-65
2022/06/13 11:01:14;;;;;;;7.68;3.85;;;24.50;99.90;;;;;;5052858;28;20167;-65
2022/06/13 11:03:57;;;;;;;6.28;3.72;;;24.40;99.90;;;;;;5033505;28;20597;-66
2022/06/13 11:06:27;;;;;;;12.45;4.63;;;24.40;99.90;;;;;;5035424;28;20183;-65
2022/06/13 11:09:02;;;;;;;10.20;5.13;;;24.00;99.90;;;;;;5050663;28;20196;-66
2022/06/13 11:11:34;;;;;;;5.93;4.53;;;23.50;99.90;;;;;;5052587;28;20202;-65
2022/06/13 11:14:00;;;;;;;5.07;4.43;;;23.70;99.90;;;;;;5052489;28;20558;-65
2022/06/13 11:22:43;;;;;;;5.05;4.18;;;23.20;99.90;;;;;;5033577;28;20302;-65
2022/06/13 11:25:22;;;;;;;7.30;4.03;;;23.60;99.90;;;;;;5043203;28;20186;-65
2022/06/13 11:28:09;;;;;;;5.30;4.18;;;24.00;99.90;;;;;;5053071;28;20249;-64
2022/06/13 11:30:41;;;;;;;6.00;4.50;;;23.90;99.90;;;;;;5039483;28;20183;-66
2022/06/13 11:33:28;;;;;;;5.15;4.00;;;23.90;99.90;;;;;;5033046;28;20234;-66
2022/06/13 11:35:59;;;;;;;8.73;4.80;;;23.90;99.90;;;;;;5048431;28;20182;-65
2022/06/13 11:38:53;;;;;;;6.38;5.30;;;23.70;99.90;;;;;;5052732;28;20233;-66
2022/06/13 11:41:24;;;;;;;8.05;4.20;;;23.50;99.90;;;;;;5034397;28;20184;-67
2022/06/13 11:44:00;;;;;;;7.05;4.53;;;23.80;99.90;;;;;;5031711;28;20225;-66
2022/06/13 11:46:50;;;;;;;6.57;4.03;;;24.10;99.90;;;;;;5050966;28;20614;-65
2022/06/13 11:49:15;;;;;;;5.88;4.25;;;24.80;99.90;;;;;;5052357;28;20550;-64
2022/06/13 11:51:49;;;;;;;8.60;4.22;;;24.30;99.90;;;;;;5032920;28;20203;-65
2022/06/13 11:54:35;;;;;;;9.38;4.38;;;23.80;99.90;;;;;;5034013;28;20237;-64
2022/06/13 11:57:26;;;;;;;7.50;3.95;;;24.00;99.90;;;;;;5032602;28;20184;-64
2022/06/13 12:00:04;;;;;;;5.95;4.13;;;24.10;99.90;;;;;;5045155;28;20202;-65
2022/06/13 12:02:39;;;;;;;4.75;3.60;;;24.20;99.90;;;;;;5050657;28;20183;-65
2022/06/13 12:05:19;;;;;;;5.20;3.53;;;24.60;99.90;;;;;;5052406;28;20192;-65
2022/06/13 12:08:16;;;;;;;4.20;3.58;;;24.90;99.90;;;;;;5048152;28;20719;-66
2022/06/13 12:11:19;;;;;;;8.38;3.58;;;25.40;99.90;;;;;;5032860;28;20270;-65
2022/06/13 12:13:46;;;;;;;4.25;3.83;;;25.60;99.90;;;;;;5043897;28;20178;-67
2022/06/13 12:16:34;;;;;;;5.47;3.78;;;25.20;99.90;;;;;;5052206;28;20171;-65
2022/06/13 12:19:24;;;;;;;6.13;3.90;;;24.60;99.90;;;;;;5038611;28;20195;-65
2022/06/13 12:22:00;;;;;;;5.25;3.88;;;24.50;99.90;;;;;;5032355;28;20179;-66
2022/06/13 12:24:39;;;;;;;3.72;3.30;;;24.70;99.90;;;;;;5047964;28;20175;-65
2022/06/13 12:27:24;;;;;;;5.10;3.83;;;24.80;99.90;;;;;;5035955;28;20585;-66
2022/06/13 12:29:53;;;;;;;5.93;3.78;;;24.40;99.90;;;;;;5032089;28;20547;-65
2022/06/13 12:32:24;;;;;;;5.20;3.50;;;23.60;99.90;;;;;;5048702;28;20572;-66
2022/06/13 12:35:14;;;;;;;5.78;4.13;;;23.10;99.90;;;;;;5051828;28;20178;-66
2022/06/13 12:38:13;;;;;;;4.47;3.60;;;22.80;99.90;;;;;;5032180;28;20598;-65
2022/06/13 12:40:52;;;;;;;9.40;4.80;;;22.50;99.90;;;;;;5034239;28;20214;-65
2022/06/13 12:43:32;;;;;;;4.90;3.53;;;22.30;99.90;;;;;;5051750;28;20557;-66
2022/06/13 12:46:15;;;;;;;5.22;3.85;;;22.90;99.90;;;;;;5047076;28;20171;-66
2022/06/13 12:48:57;;;;;;;6.93;4.30;;;23.30;99.90;;;;;;5031734;28;20199;-66
2022/06/13 12:51:29;;;;;;;3.80;3.50;;;23.90;99.90;;;;;;5038960;28;20285;-66
2022/06/13 12:54:05;;;;;;;4.18;3.70;;;24.50;99.90;;;;;;5044689;28;20635;-66
2022/06/13 12:56:36;;;;;;;4.85;3.47;;;24.90;99.90;;;;;;5031412;28;20646;-66
2022/06/13 12:59:20;;;;;;;4.32;3.15;;;25.00;99.90;;;;;;5037869;28;20281;-67
2022/06/13 13:02:01;;;;;;;6.20;3.40;;;25.00;99.90;;;;;;5051239;28;20204;-67
2022/06/13 13:04:52;;;;;;;5.45;3.40;;;24.90;99.90;;;;;;5041376;28;20225;-65
2022/06/13 13:08:03;;;;;;;3.55;3.20;;;25.10;99.90;;;;;;5031279;28;20524;-67
2022/06/13 13:10:50;;;;;;;3.60;3.40;;;25.10;99.90;;;;;;5003382;28;20688;-67
2022/06/13 13:13:54;;;;;;;3.90;3.60;;;24.80;99.90;;;;;;5031140;28;20255;-67
2022/06/13 13:16:41;;;;;;;4.07;3.67;;;25.00;99.90;;;;;;5007955;28;20187;-65
2022/06/13 13:19:07;;;;;;;3.65;3.35;;;25.70;99.90;;;;;;5031748;28;20712;-65
2022/06/13 13:21:45;;;;;;;3.50;3.20;;;26.00;99.90;;;;;;5033748;28;20234;-66
2022/06/13 13:24:22;;;;;;;3.63;3.33;;;26.10;99.90;;;;;;5050760;28;20169;-65
2022/06/13 13:27:07;;;;;;;3.60;3.13;;;25.60;99.90;;;;;;5046609;28;20262;-65
2022/06/13 13:29:51;;;;;;;3.00;2.80;;;25.00;99.90;;;;;;5030841;28;20612;-65
2022/06/13 13:32:20;;;;;;;4.60;4.00;;;25.10;99.90;;;;;;5038362;28;20309;-64
2022/06/13 13:35:11;;;;;;;4.35;3.85;;;25.30;99.90;;;;;;5050993;28;20221;-66
2022/06/13 13:38:07;;;;;;;4.28;3.95;;;25.60;99.90;;;;;;5040894;28;20183;-66
2022/06/13 13:40:35;;;;;;;4.28;3.97;;;25.10;99.90;;;;;;5009284;28;20532;-64